sensor_id;sensor_type;location;lat;lon;timestamp;P1;durP1;ratioP1;P2;durP2;ratioP2
7211;SDS011;3647;48.792;9.802;2022-08-19T00:00:16;12.43;;;10.90;;
7211;SDS011;3647;48.792;9.802;2022-08-19T00:02:44;13.43;;;11.02;;
7211;SDS011;3647;48.792;9.802;2022-08-19T00:05:12;11.70;;;10.57;;
7211;SDS011;3647;48.792;9.802;2022-08-19T00:07:40;12.57;;;11.38;;
7211;SDS011;3647;48.792;9.802;2022-08-19T00:10:09;13.00;;;11.70;;
7211;SDS011;3647;48.792;9.802;2022-08-19T00:12:39;11.55;;;10.45;;
7211;SDS011;3647;48.792;9.802;2022-08-19T00:15:06;12.30;;;11.10;;
7211;SDS011;3647;48.792;9.802;2022-08-19T00:17:39;11.98;;;10.32;;
7211;SDS011;3647;48.792;9.802;2022-08-19T00:20:08;13.25;;;10.55;;
7211;SDS011;3647;48.792;9.802;2022-08-19T00:22:35;15.43;;;12.55;;
7211;SDS011;3647;48.792;9.802;2022-08-19T00:25:03;13.82;;;11.77;;
7211;SDS011;3647;48.792;9.802;2022-08-19T00:27:31;13.65;;;12.25;;
7211;SDS011;3647;48.792;9.802;2022-08-19T00:29:58;13.50;;;11.90;;
7211;SDS011;3647;48.792;9.802;2022-08-19T00:32:26;13.70;;;12.30;;
7211;SDS011;3647;48.792;9.802;2022-08-19T00:34:55;13.93;;;12.48;;
7211;SDS011;3647;48.792;9.802;2022-08-19T00:37:22;13.82;;;12.43;;
7211;SDS011;3647;48.792;9.802;2022-08-19T00:39:52;14.63;;;13.23;;
7211;SDS011;3647;48.792;9.802;2022-08-19T00:42:21;13.63;;;12.23;;
7211;SDS011;3647;48.792;9.802;2022-08-19T00:44:48;14.60;;;13.20;;
7211;SDS011;3647;48.792;9.802;2022-08-19T00:47:15;14.15;;;12.75;;
7211;SDS011;3647;48.792;9.802;2022-08-19T00:49:43;14.77;;;13.18;;
7211;SDS011;3647;48.792;9.802;2022-08-19T00:52:18;13.25;;;11.90;;
7211;SDS011;3647;48.792;9.802;2022-08-19T00:54:48;14.15;;;12.73;;
7211;SDS011;3647;48.792;9.802;2022-08-19T00:57:18;14.32;;;12.48;;
7211;SDS011;3647;48.792;9.802;2022-08-19T00:59:51;14.07;;;12.48;;
7211;SDS011;3647;48.792;9.802;2022-08-19T01:02:20;14.68;;;13.18;;
7211;SDS011;3647;48.792;9.802;2022-08-19T01:04:47;15.35;;;12.57;;
7211;SDS011;3647;48.792;9.802;2022-08-19T01:07:14;14.75;;;13.30;;
7211;SDS011;3647;48.792;9.802;2022-08-19T01:09:43;16.33;;;13.70;;
7211;SDS011;3647;48.792;9.802;2022-08-19T01:12:10;14.60;;;13.10;;
7211;SDS011;3647;48.792;9.802;2022-08-19T01:14:37;16.95;;;13.43;;
7211;SDS011;3647;48.792;9.802;2022-08-19T01:17:06;14.65;;;13.25;;
7211;SDS011;3647;48.792;9.802;2022-08-19T01:19:35;16.08;;;14.52;;
7211;SDS011;3647;48.792;9.802;2022-08-19T01:22:06;14.30;;;12.88;;
7211;SDS011;3647;48.792;9.802;2022-08-19T01:24:39;16.73;;;14.25;;
7211;SDS011;3647;48.792;9.802;2022-08-19T01:27:06;14.77;;;13.00;;
7211;SDS011;3647;48.792;9.802;2022-08-19T01:29:34;16.15;;;14.32;;
7211;SDS011;3647;48.792;9.802;2022-08-19T01:32:04;16.63;;;13.75;;
7211;SDS011;3647;48.792;9.802;2022-08-19T01:34:33;15.65;;;13.52;;
7211;SDS011;3647;48.792;9.802;2022-08-19T01:37:01;16.23;;;14.48;;
7211;SDS011;3647;48.792;9.802;2022-08-19T01:39:33;14.70;;;13.05;;
7211;SDS011;3647;48.792;9.802;2022-08-19T01:42:02;15.98;;;14.40;;
7211;SDS011;3647;48.792;9.802;2022-08-19T01:44:30;16.65;;;14.00;;
7211;SDS011;3647;48.792;9.802;2022-08-19T01:46:57;16.67;;;14.32;;
7211;SDS011;3647;48.792;9.802;2022-08-19T01:49:24;16.08;;;14.23;;
7211;SDS011;3647;48.792;9.802;2022-08-19T01:51:52;17.40;;;13.70;;
7211;SDS011;3647;48.792;9.802;2022-08-19T01:54:20;16.13;;;13.27;;
7211;SDS011;3647;48.792;9.802;2022-08-19T01:56:49;15.38;;;13.88;;
7211;SDS011;3647;48.792;9.802;2022-08-19T01:59:19;16.42;;;14.50;;
7211;SDS011;3647;48.792;9.802;2022-08-19T02:01:49;14.73;;;13.23;;
7211;SDS011;3647;48.792;9.802;2022-08-19T02:04:16;15.48;;;13.95;;
7211;SDS011;3647;48.792;9.802;2022-08-19T02:06:43;14.90;;;13.32;;
7211;SDS011;3647;48.792;9.802;2022-08-19T02:09:10;16.55;;;14.75;;
7211;SDS011;3647;48.792;9.802;2022-08-19T02:11:37;17.40;;;13.95;;
7211;SDS011;3647;48.792;9.802;2022-08-19T02:14:05;16.10;;;14.27;;
7211;SDS011;3647;48.792;9.802;2022-08-19T02:16:35;15.13;;;13.38;;
7211;SDS011;3647;48.792;9.802;2022-08-19T02:19:03;16.80;;;15.15;;
7211;SDS011;3647;48.792;9.802;2022-08-19T02:21:30;15.70;;;14.02;;
7211;SDS011;3647;48.792;9.802;2022-08-19T02:23:58;15.40;;;13.77;;
7211;SDS011;3647;48.792;9.802;2022-08-19T02:26:25;15.23;;;13.63;;
7211;SDS011;3647;48.792;9.802;2022-08-19T02:28:53;16.13;;;14.52;;
7211;SDS011;3647;48.792;9.802;2022-08-19T02:31:21;17.52;;;14.43;;
7211;SDS011;3647;48.792;9.802;2022-08-19T02:33:51;17.35;;;15.35;;
7211;SDS011;3647;48.792;9.802;2022-08-19T02:36:18;17.38;;;15.57;;
7211;SDS011;3647;48.792;9.802;2022-08-19T02:38:46;18.13;;;15.55;;
7211;SDS011;3647;48.792;9.802;2022-08-19T02:41:13;18.10;;;16.20;;
7211;SDS011;3647;48.792;9.802;2022-08-19T02:43:42;17.70;;;15.73;;
7211;SDS011;3647;48.792;9.802;2022-08-19T02:46:13;17.75;;;15.65;;
7211;SDS011;3647;48.792;9.802;2022-08-19T02:48:45;16.70;;;15.00;;
7211;SDS011;3647;48.792;9.802;2022-08-19T02:51:17;16.05;;;12.98;;
7211;SDS011;3647;48.792;9.802;2022-08-19T02:53:45;16.10;;;14.40;;
7211;SDS011;3647;48.792;9.802;2022-08-19T02:56:12;17.08;;;13.10;;
7211;SDS011;3647;48.792;9.802;2022-08-19T02:58:39;16.38;;;14.68;;
7211;SDS011;3647;48.792;9.802;2022-08-19T03:01:08;16.83;;;14.60;;
7211;SDS011;3647;48.792;9.802;2022-08-19T03:03:35;17.85;;;16.05;;
7211;SDS011;3647;48.792;9.802;2022-08-19T03:06:03;16.52;;;14.82;;
7211;SDS011;3647;48.792;9.802;2022-08-19T03:08:34;17.60;;;15.73;;
7211;SDS011;3647;48.792;9.802;2022-08-19T03:11:01;18.38;;;16.20;;
7211;SDS011;3647;48.792;9.802;2022-08-19T03:13:28;18.73;;;16.00;;
7211;SDS011;3647;48.792;9.802;2022-08-19T03:15:55;16.95;;;15.15;;
7211;SDS011;3647;48.792;9.802;2022-08-19T03:18:22;18.00;;;15.55;;
7211;SDS011;3647;48.792;9.802;2022-08-19T03:20:50;17.88;;;16.08;;
7211;SDS011;3647;48.792;9.802;2022-08-19T03:23:19;17.38;;;15.43;;
7211;SDS011;3647;48.792;9.802;2022-08-19T03:25:49;15.63;;;13.95;;
7211;SDS011;3647;48.792;9.802;2022-08-19T03:28:18;17.20;;;14.82;;
7211;SDS011;3647;48.792;9.802;2022-08-19T03:30:54;16.35;;;14.57;;
7211;SDS011;3647;48.792;9.802;2022-08-19T03:33:23;15.93;;;14.18;;
7211;SDS011;3647;48.792;9.802;2022-08-19T03:35:59;16.67;;;14.85;;
7211;SDS011;3647;48.792;9.802;2022-08-19T03:38:27;16.83;;;14.50;;
7211;SDS011;3647;48.792;9.802;2022-08-19T03:40:55;15.75;;;14.07;;
7211;SDS011;3647;48.792;9.802;2022-08-19T03:43:22;17.80;;;15.85;;
7211;SDS011;3647;48.792;9.802;2022-08-19T03:45:58;19.48;;;16.75;;
7211;SDS011;3647;48.792;9.802;2022-08-19T03:48:29;18.45;;;16.13;;
7211;SDS011;3647;48.792;9.802;2022-08-19T03:50:56;19.35;;;16.42;;
7211;SDS011;3647;48.792;9.802;2022-08-19T03:53:24;18.17;;;15.20;;
7211;SDS011;3647;48.792;9.802;2022-08-19T03:55:52;19.25;;;17.15;;
7211;SDS011;3647;48.792;9.802;2022-08-19T03:58:20;18.38;;;16.48;;
7211;SDS011;3647;48.792;9.802;2022-08-19T04:00:48;20.98;;;18.42;;
7211;SDS011;3647;48.792;9.802;2022-08-19T04:03:15;20.73;;;17.27;;
7211;SDS011;3647;48.792;9.802;2022-08-19T04:05:43;18.77;;;16.77;;
7211;SDS011;3647;48.792;9.802;2022-08-19T04:08:11;21.17;;;16.83;;
7211;SDS011;3647;48.792;9.802;2022-08-19T04:10:41;20.27;;;17.48;;
7211;SDS011;3647;48.792;9.802;2022-08-19T04:13:08;18.48;;;16.48;;
7211;SDS011;3647;48.792;9.802;2022-08-19T04:15:39;20.35;;;17.45;;
7211;SDS011;3647;48.792;9.802;2022-08-19T04:18:07;18.67;;;16.13;;
7211;SDS011;3647;48.792;9.802;2022-08-19T04:20:39;17.80;;;15.88;;
7211;SDS011;3647;48.792;9.802;2022-08-19T04:23:09;20.33;;;16.45;;
7211;SDS011;3647;48.792;9.802;2022-08-19T04:25:37;19.33;;;17.27;;
7211;SDS011;3647;48.792;9.802;2022-08-19T04:28:05;20.70;;;16.55;;
7211;SDS011;3647;48.792;9.802;2022-08-19T04:30:40;18.38;;;16.35;;
7211;SDS011;3647;48.792;9.802;2022-08-19T04:33:08;18.33;;;16.38;;
7211;SDS011;3647;48.792;9.802;2022-08-19T04:35:36;21.10;;;17.80;;
7211;SDS011;3647;48.792;9.802;2022-08-19T04:38:04;19.63;;;17.02;;
7211;SDS011;3647;48.792;9.802;2022-08-19T04:40:31;18.60;;;16.70;;
7211;SDS011;3647;48.792;9.802;2022-08-19T04:43:16;20.10;;;16.52;;
7211;SDS011;3647;48.792;9.802;2022-08-19T04:45:44;17.65;;;15.73;;
7211;SDS011;3647;48.792;9.802;2022-08-19T04:48:12;18.90;;;16.15;;
7211;SDS011;3647;48.792;9.802;2022-08-19T04:50:39;21.25;;;16.35;;
7211;SDS011;3647;48.792;9.802;2022-08-19T04:53:08;18.50;;;16.50;;
7211;SDS011;3647;48.792;9.802;2022-08-19T04:55:37;21.77;;;15.73;;
7211;SDS011;3647;48.792;9.802;2022-08-19T04:58:05;20.83;;;17.17;;
7211;SDS011;3647;48.792;9.802;2022-08-19T05:00:32;18.38;;;15.15;;
7211;SDS011;3647;48.792;9.802;2022-08-19T05:03:01;18.10;;;13.88;;
7211;SDS011;3647;48.792;9.802;2022-08-19T05:05:28;19.33;;;15.88;;
7211;SDS011;3647;48.792;9.802;2022-08-19T05:07:56;19.98;;;17.17;;
7211;SDS011;3647;48.792;9.802;2022-08-19T05:10:23;21.33;;;16.35;;
7211;SDS011;3647;48.792;9.802;2022-08-19T05:12:50;21.10;;;15.57;;
7211;SDS011;3647;48.792;9.802;2022-08-19T05:15:17;20.02;;;16.23;;
7211;SDS011;3647;48.792;9.802;2022-08-19T05:17:44;20.02;;;15.68;;
7211;SDS011;3647;48.792;9.802;2022-08-19T05:20:27;18.85;;;16.48;;
7211;SDS011;3647;48.792;9.802;2022-08-19T05:23:12;17.83;;;15.38;;
7211;SDS011;3647;48.792;9.802;2022-08-19T05:25:40;19.50;;;15.93;;
7211;SDS011;3647;48.792;9.802;2022-08-19T05:28:07;20.83;;;17.00;;
7211;SDS011;3647;48.792;9.802;2022-08-19T05:30:34;19.27;;;15.85;;
7211;SDS011;3647;48.792;9.802;2022-08-19T05:33:01;22.75;;;16.75;;
7211;SDS011;3647;48.792;9.802;2022-08-19T05:35:29;19.38;;;15.98;;
7211;SDS011;3647;48.792;9.802;2022-08-19T05:37:56;19.35;;;16.08;;
7211;SDS011;3647;48.792;9.802;2022-08-19T05:40:23;21.25;;;16.60;;
7211;SDS011;3647;48.792;9.802;2022-08-19T05:42:50;21.55;;;16.80;;
7211;SDS011;3647;48.792;9.802;2022-08-19T05:45:18;17.45;;;15.27;;
7211;SDS011;3647;48.792;9.802;2022-08-19T05:47:46;17.40;;;15.05;;
7211;SDS011;3647;48.792;9.802;2022-08-19T05:50:13;18.92;;;16.05;;
7211;SDS011;3647;48.792;9.802;2022-08-19T05:52:43;21.02;;;16.60;;
7211;SDS011;3647;48.792;9.802;2022-08-19T05:55:10;17.90;;;15.50;;
7211;SDS011;3647;48.792;9.802;2022-08-19T05:57:37;16.88;;;14.45;;
7211;SDS011;3647;48.792;9.802;2022-08-19T06:00:05;21.48;;;15.13;;
7211;SDS011;3647;48.792;9.802;2022-08-19T06:02:35;17.33;;;14.68;;
7211;SDS011;3647;48.792;9.802;2022-08-19T06:05:03;17.88;;;14.75;;
7211;SDS011;3647;48.792;9.802;2022-08-19T06:07:34;17.90;;;14.98;;
7211;SDS011;3647;48.792;9.802;2022-08-19T06:10:03;17.42;;;14.95;;
7211;SDS011;3647;48.792;9.802;2022-08-19T06:12:31;18.60;;;14.40;;
7211;SDS011;3647;48.792;9.802;2022-08-19T06:14:59;16.30;;;14.10;;
7211;SDS011;3647;48.792;9.802;2022-08-19T06:17:27;18.23;;;14.98;;
7211;SDS011;3647;48.792;9.802;2022-08-19T06:19:54;19.45;;;14.90;;
7211;SDS011;3647;48.792;9.802;2022-08-19T06:22:23;18.80;;;15.18;;
7211;SDS011;3647;48.792;9.802;2022-08-19T06:24:50;19.02;;;15.93;;
7211;SDS011;3647;48.792;9.802;2022-08-19T06:27:20;18.67;;;15.77;;
7211;SDS011;3647;48.792;9.802;2022-08-19T06:29:47;16.20;;;13.55;;
7211;SDS011;3647;48.792;9.802;2022-08-19T06:32:15;20.48;;;15.95;;
7211;SDS011;3647;48.792;9.802;2022-08-19T06:34:43;17.98;;;15.45;;
7211;SDS011;3647;48.792;9.802;2022-08-19T06:37:10;17.20;;;14.75;;
7211;SDS011;3647;48.792;9.802;2022-08-19T06:39:39;20.23;;;16.65;;
7211;SDS011;3647;48.792;9.802;2022-08-19T06:42:07;21.17;;;15.02;;
7211;SDS011;3647;48.792;9.802;2022-08-19T06:44:39;18.05;;;15.57;;
7211;SDS011;3647;48.792;9.802;2022-08-19T06:47:08;20.90;;;15.27;;
7211;SDS011;3647;48.792;9.802;2022-08-19T06:49:36;20.02;;;15.52;;
7211;SDS011;3647;48.792;9.802;2022-08-19T06:52:03;23.25;;;16.25;;
7211;SDS011;3647;48.792;9.802;2022-08-19T06:54:31;31.83;;;19.30;;
7211;SDS011;3647;48.792;9.802;2022-08-19T06:56:58;26.17;;;17.77;;
7211;SDS011;3647;48.792;9.802;2022-08-19T06:59:27;23.77;;;17.13;;
7211;SDS011;3647;48.792;9.802;2022-08-19T07:01:58;20.35;;;16.27;;
7211;SDS011;3647;48.792;9.802;2022-08-19T07:04:27;24.65;;;17.92;;
7211;SDS011;3647;48.792;9.802;2022-08-19T07:06:57;21.75;;;16.20;;
7211;SDS011;3647;48.792;9.802;2022-08-19T07:09:25;22.45;;;16.50;;
7211;SDS011;3647;48.792;9.802;2022-08-19T07:11:53;21.75;;;17.10;;
7211;SDS011;3647;48.792;9.802;2022-08-19T07:14:22;21.75;;;16.10;;
7211;SDS011;3647;48.792;9.802;2022-08-19T07:16:51;22.08;;;17.08;;
7211;SDS011;3647;48.792;9.802;2022-08-19T07:19:22;19.48;;;15.93;;
7211;SDS011;3647;48.792;9.802;2022-08-19T07:21:51;27.75;;;19.23;;
7211;SDS011;3647;48.792;9.802;2022-08-19T07:24:18;21.60;;;16.33;;
7211;SDS011;3647;48.792;9.802;2022-08-19T07:26:48;21.02;;;17.38;;
7211;SDS011;3647;48.792;9.802;2022-08-19T07:29:16;23.00;;;17.38;;
7211;SDS011;3647;48.792;9.802;2022-08-19T07:31:43;21.40;;;17.48;;
7211;SDS011;3647;48.792;9.802;2022-08-19T07:34:11;22.35;;;18.48;;
7211;SDS011;3647;48.792;9.802;2022-08-19T07:36:41;24.15;;;18.63;;
7211;SDS011;3647;48.792;9.802;2022-08-19T07:39:10;23.90;;;18.20;;
7211;SDS011;3647;48.792;9.802;2022-08-19T07:41:39;23.02;;;16.13;;
7211;SDS011;3647;48.792;9.802;2022-08-19T07:44:06;24.10;;;17.85;;
7211;SDS011;3647;48.792;9.802;2022-08-19T07:46:36;25.95;;;18.98;;
7211;SDS011;3647;48.792;9.802;2022-08-19T07:49:05;24.08;;;17.77;;
7211;SDS011;3647;48.792;9.802;2022-08-19T07:51:33;52.40;;;38.72;;
7211;SDS011;3647;48.792;9.802;2022-08-19T07:54:02;27.92;;;18.63;;
7211;SDS011;3647;48.792;9.802;2022-08-19T07:56:29;25.77;;;18.15;;
7211;SDS011;3647;48.792;9.802;2022-08-19T07:58:56;25.13;;;18.30;;
7211;SDS011;3647;48.792;9.802;2022-08-19T08:01:24;24.63;;;18.80;;
7211;SDS011;3647;48.792;9.802;2022-08-19T08:03:53;26.80;;;18.70;;
7211;SDS011;3647;48.792;9.802;2022-08-19T08:06:40;27.38;;;17.88;;
7211;SDS011;3647;48.792;9.802;2022-08-19T08:09:27;24.73;;;18.35;;
7211;SDS011;3647;48.792;9.802;2022-08-19T08:11:56;24.20;;;17.42;;
7211;SDS011;3647;48.792;9.802;2022-08-19T08:14:27;27.77;;;18.85;;
7211;SDS011;3647;48.792;9.802;2022-08-19T08:16:57;29.17;;;20.23;;
7211;SDS011;3647;48.792;9.802;2022-08-19T08:19:25;23.88;;;19.15;;
7211;SDS011;3647;48.792;9.802;2022-08-19T08:21:54;27.63;;;20.08;;
7211;SDS011;3647;48.792;9.802;2022-08-19T08:24:23;24.30;;;19.25;;
7211;SDS011;3647;48.792;9.802;2022-08-19T08:26:52;25.60;;;19.30;;
7211;SDS011;3647;48.792;9.802;2022-08-19T08:29:19;27.98;;;21.25;;
7211;SDS011;3647;48.792;9.802;2022-08-19T08:31:46;26.92;;;19.27;;
7211;SDS011;3647;48.792;9.802;2022-08-19T08:34:14;24.77;;;19.20;;
7211;SDS011;3647;48.792;9.802;2022-08-19T08:36:41;28.83;;;21.02;;
7211;SDS011;3647;48.792;9.802;2022-08-19T08:39:10;25.40;;;19.23;;
7211;SDS011;3647;48.792;9.802;2022-08-19T08:41:42;28.70;;;19.67;;
7211;SDS011;3647;48.792;9.802;2022-08-19T08:44:18;26.65;;;20.25;;
7211;SDS011;3647;48.792;9.802;2022-08-19T08:46:49;25.05;;;19.65;;
7211;SDS011;3647;48.792;9.802;2022-08-19T08:49:25;28.25;;;21.17;;
7211;SDS011;3647;48.792;9.802;2022-08-19T08:51:59;25.95;;;20.77;;
7211;SDS011;3647;48.792;9.802;2022-08-19T08:54:32;27.50;;;19.88;;
7211;SDS011;3647;48.792;9.802;2022-08-19T08:57:04;28.42;;;20.80;;
7211;SDS011;3647;48.792;9.802;2022-08-19T08:59:38;27.30;;;20.92;;
7211;SDS011;3647;48.792;9.802;2022-08-19T09:02:06;29.25;;;21.02;;
7211;SDS011;3647;48.792;9.802;2022-08-19T09:04:34;27.85;;;21.65;;
7211;SDS011;3647;48.792;9.802;2022-08-19T09:07:08;25.42;;;19.48;;
7211;SDS011;3647;48.792;9.802;2022-08-19T09:09:45;30.17;;;21.40;;
7211;SDS011;3647;48.792;9.802;2022-08-19T09:12:18;28.27;;;21.33;;
7211;SDS011;3647;48.792;9.802;2022-08-19T09:14:54;26.65;;;20.48;;
7211;SDS011;3647;48.792;9.802;2022-08-19T09:17:25;28.45;;;21.23;;
7211;SDS011;3647;48.792;9.802;2022-08-19T09:19:56;28.80;;;20.13;;
7211;SDS011;3647;48.792;9.802;2022-08-19T09:22:25;27.05;;;19.55;;
7211;SDS011;3647;48.792;9.802;2022-08-19T09:24:53;28.58;;;20.20;;
7211;SDS011;3647;48.792;9.802;2022-08-19T09:27:22;23.90;;;19.80;;
7211;SDS011;3647;48.792;9.802;2022-08-19T09:29:50;26.65;;;20.88;;
7211;SDS011;3647;48.792;9.802;2022-08-19T09:32:18;27.05;;;20.45;;
7211;SDS011;3647;48.792;9.802;2022-08-19T09:34:46;29.27;;;19.73;;
7211;SDS011;3647;48.792;9.802;2022-08-19T09:37:13;33.22;;;21.73;;
7211;SDS011;3647;48.792;9.802;2022-08-19T09:39:42;30.13;;;21.10;;
7211;SDS011;3647;48.792;9.802;2022-08-19T09:42:09;28.63;;;21.17;;
7211;SDS011;3647;48.792;9.802;2022-08-19T09:44:38;28.45;;;22.20;;
7211;SDS011;3647;48.792;9.802;2022-08-19T09:47:06;25.38;;;20.58;;
7211;SDS011;3647;48.792;9.802;2022-08-19T09:49:33;27.52;;;20.63;;
7211;SDS011;3647;48.792;9.802;2022-08-19T09:52:00;31.80;;;21.60;;
7211;SDS011;3647;48.792;9.802;2022-08-19T09:54:28;28.13;;;20.48;;
7211;SDS011;3647;48.792;9.802;2022-08-19T09:56:55;30.67;;;22.20;;
7211;SDS011;3647;48.792;9.802;2022-08-19T09:59:25;26.33;;;21.15;;
7211;SDS011;3647;48.792;9.802;2022-08-19T10:01:53;28.30;;;21.65;;
7211;SDS011;3647;48.792;9.802;2022-08-19T10:04:20;26.48;;;21.45;;
7211;SDS011;3647;48.792;9.802;2022-08-19T10:06:48;26.58;;;20.77;;
7211;SDS011;3647;48.792;9.802;2022-08-19T10:09:16;27.85;;;19.55;;
7211;SDS011;3647;48.792;9.802;2022-08-19T10:11:44;28.77;;;20.00;;
7211;SDS011;3647;48.792;9.802;2022-08-19T10:14:14;26.73;;;20.40;;
7211;SDS011;3647;48.792;9.802;2022-08-19T10:16:42;26.75;;;20.17;;
7211;SDS011;3647;48.792;9.802;2022-08-19T10:19:10;27.90;;;20.08;;
7211;SDS011;3647;48.792;9.802;2022-08-19T10:21:37;26.65;;;20.52;;
7211;SDS011;3647;48.792;9.802;2022-08-19T10:24:05;26.48;;;20.33;;
7211;SDS011;3647;48.792;9.802;2022-08-19T10:26:33;28.98;;;21.10;;
7211;SDS011;3647;48.792;9.802;2022-08-19T10:29:02;24.27;;;19.13;;
7211;SDS011;3647;48.792;9.802;2022-08-19T10:31:32;22.67;;;18.98;;
7211;SDS011;3647;48.792;9.802;2022-08-19T10:33:59;28.92;;;19.45;;
7211;SDS011;3647;48.792;9.802;2022-08-19T10:36:29;26.70;;;20.30;;
7211;SDS011;3647;48.792;9.802;2022-08-19T10:38:58;25.55;;;19.55;;
7211;SDS011;3647;48.792;9.802;2022-08-19T10:41:27;27.60;;;20.25;;
7211;SDS011;3647;48.792;9.802;2022-08-19T10:43:57;24.52;;;19.65;;
7211;SDS011;3647;48.792;9.802;2022-08-19T10:46:26;26.85;;;21.38;;
7211;SDS011;3647;48.792;9.802;2022-08-19T10:48:56;26.13;;;19.95;;
7211;SDS011;3647;48.792;9.802;2022-08-19T10:51:23;24.67;;;19.95;;
7211;SDS011;3647;48.792;9.802;2022-08-19T10:54:09;24.90;;;18.55;;
7211;SDS011;3647;48.792;9.802;2022-08-19T10:56:36;27.25;;;19.52;;
7211;SDS011;3647;48.792;9.802;2022-08-19T10:59:18;26.08;;;19.25;;
7211;SDS011;3647;48.792;9.802;2022-08-19T11:01:46;28.55;;;20.85;;
7211;SDS011;3647;48.792;9.802;2022-08-19T11:04:14;23.30;;;17.67;;
7211;SDS011;3647;48.792;9.802;2022-08-19T11:06:43;24.50;;;19.05;;
7211;SDS011;3647;48.792;9.802;2022-08-19T11:09:14;22.67;;;18.55;;
7211;SDS011;3647;48.792;9.802;2022-08-19T11:11:41;25.15;;;19.73;;
7211;SDS011;3647;48.792;9.802;2022-08-19T11:14:09;23.33;;;18.40;;
7211;SDS011;3647;48.792;9.802;2022-08-19T11:16:39;24.25;;;17.42;;
7211;SDS011;3647;48.792;9.802;2022-08-19T11:19:07;28.17;;;17.27;;
7211;SDS011;3647;48.792;9.802;2022-08-19T11:21:36;24.33;;;17.90;;
7211;SDS011;3647;48.792;9.802;2022-08-19T11:24:05;22.70;;;18.17;;
7211;SDS011;3647;48.792;9.802;2022-08-19T11:26:36;20.00;;;16.58;;
7211;SDS011;3647;48.792;9.802;2022-08-19T11:29:05;22.27;;;18.73;;
7211;SDS011;3647;48.792;9.802;2022-08-19T11:31:36;27.38;;;19.70;;
7211;SDS011;3647;48.792;9.802;2022-08-19T11:34:08;24.65;;;18.90;;
7211;SDS011;3647;48.792;9.802;2022-08-19T11:36:37;22.25;;;18.13;;
7211;SDS011;3647;48.792;9.802;2022-08-19T11:39:06;28.80;;;20.35;;
7211;SDS011;3647;48.792;9.802;2022-08-19T11:41:36;26.67;;;19.92;;
7211;SDS011;3647;48.792;9.802;2022-08-19T11:44:03;24.05;;;18.23;;
7211;SDS011;3647;48.792;9.802;2022-08-19T11:46:31;29.25;;;20.55;;
7211;SDS011;3647;48.792;9.802;2022-08-19T11:48:58;27.98;;;19.98;;
7211;SDS011;3647;48.792;9.802;2022-08-19T11:51:28;25.20;;;19.10;;
7211;SDS011;3647;48.792;9.802;2022-08-19T11:53:56;24.63;;;18.88;;
7211;SDS011;3647;48.792;9.802;2022-08-19T11:56:24;29.77;;;21.40;;
7211;SDS011;3647;48.792;9.802;2022-08-19T11:58:53;25.50;;;19.33;;
7211;SDS011;3647;48.792;9.802;2022-08-19T12:01:22;27.55;;;20.73;;
7211;SDS011;3647;48.792;9.802;2022-08-19T12:03:51;24.95;;;20.08;;
7211;SDS011;3647;48.792;9.802;2022-08-19T12:06:21;26.73;;;19.77;;
7211;SDS011;3647;48.792;9.802;2022-08-19T12:08:53;25.63;;;19.67;;
7211;SDS011;3647;48.792;9.802;2022-08-19T12:11:20;26.92;;;20.17;;
7211;SDS011;3647;48.792;9.802;2022-08-19T12:13:47;23.30;;;19.23;;
7211;SDS011;3647;48.792;9.802;2022-08-19T12:16:17;26.25;;;18.70;;
7211;SDS011;3647;48.792;9.802;2022-08-19T12:18:49;27.83;;;20.05;;
7211;SDS011;3647;48.792;9.802;2022-08-19T12:21:17;29.90;;;20.90;;
7211;SDS011;3647;48.792;9.802;2022-08-19T12:23:46;26.85;;;20.92;;
7211;SDS011;3647;48.792;9.802;2022-08-19T12:26:14;26.42;;;19.90;;
7211;SDS011;3647;48.792;9.802;2022-08-19T12:28:42;26.23;;;19.60;;
7211;SDS011;3647;48.792;9.802;2022-08-19T12:31:09;24.80;;;19.60;;
7211;SDS011;3647;48.792;9.802;2022-08-19T12:33:39;25.95;;;19.42;;
7211;SDS011;3647;48.792;9.802;2022-08-19T12:36:07;27.05;;;19.08;;
7211;SDS011;3647;48.792;9.802;2022-08-19T12:38:37;26.38;;;19.30;;
7211;SDS011;3647;48.792;9.802;2022-08-19T12:41:05;24.58;;;19.25;;
7211;SDS011;3647;48.792;9.802;2022-08-19T12:43:33;26.15;;;20.35;;
7211;SDS011;3647;48.792;9.802;2022-08-19T12:46:00;29.00;;;22.65;;
7211;SDS011;3647;48.792;9.802;2022-08-19T12:48:29;25.33;;;19.52;;
7211;SDS011;3647;48.792;9.802;2022-08-19T12:50:57;26.73;;;19.90;;
7211;SDS011;3647;48.792;9.802;2022-08-19T12:53:24;24.45;;;19.30;;
7211;SDS011;3647;48.792;9.802;2022-08-19T12:55:54;23.67;;;19.05;;
7211;SDS011;3647;48.792;9.802;2022-08-19T12:58:21;26.40;;;20.58;;
7211;SDS011;3647;48.792;9.802;2022-08-19T13:00:49;25.98;;;19.65;;
7211;SDS011;3647;48.792;9.802;2022-08-19T13:03:16;25.27;;;20.02;;
7211;SDS011;3647;48.792;9.802;2022-08-19T13:05:43;24.38;;;18.50;;
7211;SDS011;3647;48.792;9.802;2022-08-19T13:08:11;23.42;;;18.20;;
7211;SDS011;3647;48.792;9.802;2022-08-19T13:10:38;24.98;;;17.77;;
7211;SDS011;3647;48.792;9.802;2022-08-19T13:13:05;23.33;;;18.05;;
7211;SDS011;3647;48.792;9.802;2022-08-19T13:15:35;21.13;;;17.80;;
7211;SDS011;3647;48.792;9.802;2022-08-19T13:18:04;24.13;;;17.55;;
7211;SDS011;3647;48.792;9.802;2022-08-19T13:20:32;24.77;;;18.55;;
7211;SDS011;3647;48.792;9.802;2022-08-19T13:22:59;22.08;;;17.17;;
7211;SDS011;3647;48.792;9.802;2022-08-19T13:25:27;20.55;;;17.52;;
7211;SDS011;3647;48.792;9.802;2022-08-19T13:27:54;23.02;;;17.27;;
7211;SDS011;3647;48.792;9.802;2022-08-19T13:30:21;19.77;;;16.95;;
7211;SDS011;3647;48.792;9.802;2022-08-19T13:33:06;21.27;;;17.35;;
7211;SDS011;3647;48.792;9.802;2022-08-19T13:35:37;17.38;;;15.55;;
7211;SDS011;3647;48.792;9.802;2022-08-19T13:38:04;19.08;;;15.68;;
7211;SDS011;3647;48.792;9.802;2022-08-19T13:40:32;19.08;;;14.80;;
7211;SDS011;3647;48.792;9.802;2022-08-19T13:43:00;23.80;;;17.25;;
7211;SDS011;3647;48.792;9.802;2022-08-19T13:45:28;21.33;;;17.33;;
7211;SDS011;3647;48.792;9.802;2022-08-19T13:47:57;24.92;;;19.02;;
7211;SDS011;3647;48.792;9.802;2022-08-19T13:50:25;22.35;;;17.15;;
7211;SDS011;3647;48.792;9.802;2022-08-19T13:52:53;21.25;;;18.15;;
7211;SDS011;3647;48.792;9.802;2022-08-19T13:55:21;24.52;;;19.63;;
7211;SDS011;3647;48.792;9.802;2022-08-19T13:57:51;23.25;;;19.33;;
7211;SDS011;3647;48.792;9.802;2022-08-19T14:00:18;21.35;;;18.67;;
7211;SDS011;3647;48.792;9.802;2022-08-19T14:02:46;21.50;;;17.30;;
7211;SDS011;3647;48.792;9.802;2022-08-19T14:05:16;17.92;;;14.07;;
7211;SDS011;3647;48.792;9.802;2022-08-19T14:07:43;21.75;;;17.40;;
7211;SDS011;3647;48.792;9.802;2022-08-19T14:10:11;19.95;;;16.50;;
7211;SDS011;3647;48.792;9.802;2022-08-19T14:12:38;21.60;;;16.15;;
7211;SDS011;3647;48.792;9.802;2022-08-19T14:15:08;18.90;;;15.95;;
7211;SDS011;3647;48.792;9.802;2022-08-19T14:17:37;18.48;;;15.38;;
7211;SDS011;3647;48.792;9.802;2022-08-19T14:20:05;19.13;;;16.35;;
7211;SDS011;3647;48.792;9.802;2022-08-19T14:22:34;16.13;;;14.23;;
7211;SDS011;3647;48.792;9.802;2022-08-19T14:25:02;15.95;;;14.25;;
7211;SDS011;3647;48.792;9.802;2022-08-19T14:27:30;18.95;;;15.65;;
7211;SDS011;3647;48.792;9.802;2022-08-19T14:29:59;18.67;;;15.40;;
7211;SDS011;3647;48.792;9.802;2022-08-19T14:32:27;18.50;;;15.05;;
7211;SDS011;3647;48.792;9.802;2022-08-19T14:34:54;20.40;;;15.50;;
7211;SDS011;3647;48.792;9.802;2022-08-19T14:37:20;18.55;;;15.57;;
7211;SDS011;3647;48.792;9.802;2022-08-19T14:39:47;16.48;;;14.00;;
7211;SDS011;3647;48.792;9.802;2022-08-19T14:42:15;15.55;;;13.63;;
7211;SDS011;3647;48.792;9.802;2022-08-19T14:44:42;16.02;;;13.90;;
7211;SDS011;3647;48.792;9.802;2022-08-19T14:47:09;15.10;;;12.80;;
7211;SDS011;3647;48.792;9.802;2022-08-19T14:49:37;13.90;;;12.25;;
7211;SDS011;3647;48.792;9.802;2022-08-19T14:52:05;13.95;;;12.27;;
7211;SDS011;3647;48.792;9.802;2022-08-19T14:54:32;14.85;;;11.70;;
7211;SDS011;3647;48.792;9.802;2022-08-19T14:57:00;12.80;;;10.65;;